createdAt,value
2023-04-22T00:00:34.308Z,83.41
2023-04-22T00:03:39.324Z,83.52
2023-04-22T00:06:43.003Z,83.20
2023-04-22T00:09:47.176Z,83.86
2023-04-22T00:12:50.684Z,82.63
2023-04-22T00:15:55.809Z,82.24
2023-04-22T00:18:59.350Z,81.86
2023-04-22T00:22:03.070Z,81.79
2023-04-22T00:25:07.557Z,83.06
2023-04-22T00:28:11.375Z,84.67
2023-04-22T00:31:16.483Z,86.39
2023-04-22T00:34:20.061Z,85.46
2023-04-22T00:37:23.674Z,84.77
2023-04-22T00:40:27.129Z,87.22
2023-04-22T00:43:30.901Z,85.72
2023-04-22T00:46:36.099Z,87.31
2023-04-22T00:49:40.695Z,85.86
2023-04-22T00:52:44.548Z,83.97
2023-04-22T00:55:48.361Z,83.86
2023-04-22T00:59:29.068Z,83.37
2023-04-22T01:02:35.391Z,83.16
2023-04-22T01:05:39.478Z,82.24
2023-04-22T01:08:43.845Z,82.22
2023-04-22T01:11:48.424Z,82.45
2023-04-22T01:14:52.041Z,83.14
2023-04-22T01:17:58.296Z,84.79
2023-04-22T01:21:02.445Z,84.50
2023-04-22T01:24:08.531Z,82.29
2023-04-22T01:27:13.461Z,81.66
2023-04-22T01:30:18.479Z,80.94
2023-04-22T01:33:22.159Z,81.71
2023-04-22T01:36:26.009Z,80.96
2023-04-22T01:39:32.371Z,80.62
2023-04-22T01:42:36.199Z,80.62
2023-04-22T01:45:39.736Z,81.43
2023-04-22T01:48:43.796Z,81.49
2023-04-22T01:51:47.352Z,80.81
2023-04-22T01:54:53.002Z,81.54
2023-04-22T01:57:56.649Z,85.19
2023-04-22T02:01:00.392Z,86.02
2023-04-22T02:04:04.055Z,84.38
2023-04-22T02:07:07.696Z,84.15
2023-04-22T02:10:16.235Z,85.34
2023-04-22T02:13:20.652Z,86.96
2023-04-22T02:16:25.233Z,85.69
2023-04-22T02:19:28.938Z,84.17
2023-04-22T02:22:33.432Z,84.06
2023-04-22T02:25:39.268Z,84.61
2023-04-22T02:28:43.030Z,83.67
2023-04-22T02:31:46.614Z,83.74
2023-04-22T02:34:50.989Z,83.02
2023-04-22T02:37:56.852Z,85.71
2023-04-22T02:41:04.242Z,84.99
2023-04-22T02:44:07.817Z,84.37
2023-04-22T02:47:11.513Z,84.49
2023-04-22T02:50:17.081Z,85.52
2023-04-22T02:53:20.616Z,84.51
2023-04-22T02:56:26.945Z,83.63
2023-04-22T02:59:30.589Z,83.91
2023-04-22T03:02:34.482Z,85.18
2023-04-22T03:05:43.967Z,86.89
2023-04-22T03:08:47.679Z,87.03
2023-04-22T03:11:52.604Z,87.37
2023-04-22T03:14:56.361Z,88.95
2023-04-22T03:18:02.669Z,89.41
2023-04-22T03:21:06.835Z,89.84
2023-04-22T03:24:10.521Z,89.12
2023-04-22T03:27:21.009Z,89.35
2023-04-22T03:30:24.883Z,87.27
2023-04-22T03:33:30.173Z,86.63
2023-04-22T03:36:40.816Z,86.12
2023-04-22T03:39:44.576Z,86.30
2023-04-22T03:42:49.759Z,86.09
2023-04-22T03:45:56.538Z,85.43
2023-04-22T03:49:03.117Z,84.90
2023-04-22T03:52:10.881Z,88.18
2023-04-22T03:55:19.379Z,86.92
2023-04-22T03:58:25.888Z,88.43
2023-04-22T04:01:30.734Z,85.04
2023-04-22T04:04:38.268Z,85.69
2023-04-22T04:07:44.166Z,83.81
2023-04-22T04:10:47.877Z,83.54
2023-04-22T04:13:54.041Z,82.82
2023-04-22T04:17:03.964Z,84.58
2023-04-22T04:20:11.435Z,81.59
2023-04-22T04:23:16.754Z,81.26
2023-04-22T04:26:22.082Z,79.96
2023-04-22T04:29:31.479Z,78.43
2023-04-22T04:32:47.446Z,78.02
2023-04-22T04:35:54.249Z,76.98
2023-04-22T04:39:04.402Z,76.03
2023-04-22T04:42:09.922Z,77.40
2023-04-22T04:45:24.296Z,75.87
2023-04-22T04:48:29.160Z,74.80
2023-04-22T04:51:39.916Z,74.59
2023-04-22T04:54:44.044Z,75.09
2023-04-22T04:57:48.413Z,76.78
2023-04-22T05:00:53.722Z,77.46
2023-04-22T05:03:58.143Z,75.63
2023-04-22T05:07:02.291Z,74.71
2023-04-22T05:10:08.306Z,73.27
2023-04-22T05:13:12.753Z,73.05
2023-04-22T05:16:22.522Z,71.94
2023-04-22T05:19:26.873Z,71.44
2023-04-22T05:22:31.751Z,69.65
2023-04-22T05:25:35.782Z,69.30
2023-04-22T05:28:45.322Z,69.27
2023-04-22T05:31:50.829Z,70.16
2023-04-22T05:34:54.653Z,69.69
2023-04-22T05:37:58.516Z,68.13
2023-04-22T05:41:02.843Z,68.89
2023-04-22T05:44:07.046Z,67.83
2023-04-22T05:47:12.727Z,67.90
2023-04-22T05:50:16.599Z,66.85
2023-04-22T05:53:32.762Z,65.05
2023-04-22T05:56:38.760Z,63.39
2023-04-22T05:59:42.969Z,63.63
2023-04-22T06:02:48.706Z,63.54
2023-04-22T06:05:52.668Z,61.54
2023-04-22T06:08:56.909Z,62.26
2023-04-22T06:12:02.220Z,61.28
2023-04-22T06:15:08.416Z,61.22
2023-04-22T06:18:14.684Z,60.95
2023-04-22T06:21:18.538Z,60.23
2023-04-22T06:24:24.496Z,61.77
2023-04-22T06:27:28.365Z,64.91
2023-04-22T06:30:32.217Z,63.67
2023-04-22T06:33:37.534Z,65.01
2023-04-22T06:36:41.386Z,62.92
2023-04-22T06:39:45.115Z,61.35
2023-04-22T06:43:07.368Z,61.89
2023-04-22T06:46:29.704Z,63.20
2023-04-22T06:50:08.805Z,62.46
2023-04-22T06:53:16.311Z,63.38
2023-04-22T06:56:20.342Z,62.26
2023-04-22T06:59:24.152Z,59.34
2023-04-22T07:02:28.434Z,59.42
2023-04-22T07:05:33.818Z,61.01
2023-04-22T07:08:39.826Z,60.59
2023-04-22T07:11:44.349Z,60.46
2023-04-22T07:14:55.238Z,60.38
2023-04-22T07:17:59.136Z,59.17
2023-04-22T07:21:04.360Z,59.51
2023-04-22T07:24:12.254Z,58.35
2023-04-22T07:27:16.116Z,58.57
2023-04-22T07:30:19.889Z,59.34
2023-04-22T07:33:23.586Z,59.21
2023-04-22T07:36:28.948Z,56.22
2023-04-22T07:39:32.799Z,55.07
2023-04-22T07:42:38.615Z,54.04
2023-04-22T07:45:42.627Z,54.17
2023-04-22T07:48:46.347Z,53.84
2023-04-22T07:51:53.565Z,52.90
2023-04-22T07:54:57.371Z,51.43
2023-04-22T07:58:03.804Z,50.54
2023-04-22T08:01:07.762Z,50.62
2023-04-22T08:04:11.883Z,52.69
2023-04-22T08:07:32.521Z,50.96
2023-04-22T08:10:37.018Z,49.23
2023-04-22T08:13:40.798Z,49.76
2023-04-22T08:16:45.091Z,49.42
2023-04-22T08:19:49.129Z,49.19
2023-04-22T08:22:58.501Z,48.45
2023-04-22T08:26:02.355Z,48.15
2023-04-22T08:29:06.402Z,47.92
2023-04-22T08:32:10.698Z,48.11
2023-04-22T08:35:14.499Z,47.14
2023-04-22T08:38:20.242Z,46.26
2023-04-22T08:41:25.581Z,45.49
2023-04-22T08:44:30.198Z,44.67
2023-04-22T08:47:34.473Z,46.55
2023-04-22T08:50:40.923Z,47.16
2023-04-22T08:53:46.992Z,48.31
2023-04-22T08:56:52.434Z,46.82
2023-04-22T08:59:57.927Z,47.13
2023-04-22T09:03:03.897Z,47.37
2023-04-22T09:06:09.672Z,45.98
2023-04-22T09:09:15.566Z,46.09
2023-04-22T09:12:19.688Z,45.84
2023-04-22T09:15:23.931Z,45.93
2023-04-22T09:18:27.998Z,44.86
2023-04-22T09:21:35.154Z,45.32
2023-04-22T09:24:44.211Z,45.83
2023-04-22T09:27:52.063Z,47.99
2023-04-22T09:30:55.944Z,46.33
2023-04-22T09:34:02.182Z,46.96
2023-04-22T09:37:07.454Z,44.98
2023-04-22T09:40:17.149Z,45.01
2023-04-22T09:43:21.179Z,43.86
2023-04-22T09:46:26.092Z,44.13
2023-04-22T09:49:30.069Z,42.93
2023-04-22T09:52:34.910Z,45.41
2023-04-22T09:55:41.952Z,44.56
2023-04-22T09:58:46.139Z,45.24
2023-04-22T10:01:51.175Z,44.37
2023-04-22T10:04:55.073Z,42.81
2023-04-22T10:07:58.965Z,42.17
2023-04-22T10:11:04.975Z,41.89
2023-04-22T10:14:10.799Z,41.45
2023-04-22T10:17:15.730Z,41.69
2023-04-22T10:20:21.763Z,40.73
2023-04-22T10:23:26.758Z,43.15
2023-04-22T10:26:49.537Z,42.81
2023-04-22T10:29:53.418Z,42.25
2023-04-22T10:32:57.308Z,42.24
2023-04-22T10:36:09.478Z,41.46
2023-04-22T10:39:19.234Z,40.68
2023-04-22T10:42:24.807Z,40.42
2023-04-22T10:45:28.559Z,40.52
2023-04-22T10:48:50.047Z,40.49
2023-04-22T10:51:55.123Z,40.36
2023-04-22T10:55:01.117Z,41.74
2023-04-22T10:58:21.504Z,42.09
2023-04-22T11:01:29.420Z,41.68
2023-04-22T11:04:33.442Z,41.36
2023-04-22T11:07:37.374Z,42.20
2023-04-22T11:10:44.658Z,41.39
2023-04-22T11:13:52.169Z,40.46
2023-04-22T11:16:56.701Z,41.75
2023-04-22T11:20:00.724Z,45.69
2023-04-22T11:23:04.954Z,44.77
2023-04-22T11:26:08.807Z,45.54
2023-04-22T11:29:14.041Z,47.30
2023-04-22T11:32:17.851Z,50.23
2023-04-22T11:35:23.549Z,50.35
2023-04-22T11:38:27.429Z,51.59
2023-04-22T11:41:31.624Z,52.01
2023-04-22T11:44:36.879Z,52.92
2023-04-22T11:47:42.006Z,53.44
2023-04-22T11:50:45.970Z,54.18
2023-04-22T11:53:52.460Z,56.81
2023-04-22T11:56:56.333Z,58.45
2023-04-22T12:00:01.704Z,58.11
2023-04-22T12:03:10.968Z,59.82
2023-04-22T12:06:18.261Z,61.81
2023-04-22T12:09:25.938Z,63.69
2023-04-22T12:12:30.324Z,63.73
2023-04-22T12:15:46.761Z,66.97
2023-04-22T12:18:52.091Z,68.42
2023-04-22T12:21:57.875Z,68.00
2023-04-22T12:25:02.217Z,69.38
2023-04-22T12:28:06.088Z,69.83
2023-04-22T12:31:12.472Z,70.66
2023-04-22T12:34:16.392Z,71.26
2023-04-22T12:37:20.733Z,71.50
2023-04-22T12:40:24.716Z,72.61
2023-04-22T12:43:28.581Z,71.14
2023-04-22T12:46:34.845Z,69.99
2023-04-22T12:49:40.050Z,71.17
2023-04-22T12:52:44.097Z,69.41
2023-04-22T12:55:48.586Z,70.44
2023-04-22T12:58:52.357Z,72.47
2023-04-22T13:01:57.565Z,69.07
2023-04-22T13:05:01.400Z,68.46
2023-04-22T13:08:07.493Z,66.79
2023-04-22T13:11:12.069Z,65.23
2023-04-22T13:14:15.771Z,64.71
2023-04-22T13:17:21.311Z,62.85
2023-04-22T13:20:25.028Z,65.64
2023-04-22T13:23:28.801Z,66.17
2023-04-22T13:26:32.668Z,66.77
2023-04-22T13:29:37.161Z,64.10
2023-04-22T13:32:42.472Z,60.35
2023-04-22T13:35:47.061Z,58.29
2023-04-22T13:38:51.476Z,56.13
2023-04-22T13:41:55.641Z,53.77
2023-04-22T13:44:59.328Z,53.67
2023-04-22T13:48:04.516Z,54.21
2023-04-22T13:51:08.282Z,54.87
2023-04-22T13:54:12.049Z,52.67
2023-04-22T13:57:15.820Z,50.87
2023-04-22T14:00:21.086Z,52.30
2023-04-22T14:03:26.463Z,51.21
2023-04-22T14:06:30.320Z,49.25
2023-04-22T14:09:34.730Z,47.61
2023-04-22T14:12:38.505Z,47.88
2023-04-22T14:15:42.186Z,46.54
2023-04-22T14:18:48.237Z,47.83
2023-04-22T14:21:51.971Z,47.97
2023-04-22T14:24:55.891Z,48.34
2023-04-22T14:27:59.701Z,47.93
2023-04-22T14:31:03.624Z,47.61
2023-04-22T14:34:08.973Z,47.53
2023-04-22T14:37:13.069Z,47.47
2023-04-22T14:40:16.972Z,48.20
2023-04-22T14:43:21.324Z,48.59
2023-04-22T14:46:25.158Z,48.76
2023-04-22T14:49:31.953Z,49.78
2023-04-22T14:52:36.910Z,49.63
2023-04-22T14:55:40.631Z,49.84
2023-04-22T14:58:44.501Z,49.45
2023-04-22T15:01:48.406Z,50.88
2023-04-22T15:04:53.696Z,51.13
2023-04-22T15:07:58.085Z,50.75
2023-04-22T15:11:01.834Z,50.63
2023-04-22T15:14:05.746Z,49.35
2023-04-22T15:17:10.025Z,48.92
2023-04-22T15:20:15.503Z,49.14
2023-04-22T15:23:19.417Z,48.56
2023-04-22T15:26:23.171Z,48.51
2023-04-22T15:29:28.655Z,47.47
2023-04-22T15:32:32.646Z,48.08
2023-04-22T15:35:37.969Z,48.20
2023-04-22T15:38:41.731Z,48.04
2023-04-22T15:41:46.146Z,49.65
2023-04-22T15:44:49.912Z,49.45
2023-04-22T15:47:54.942Z,49.46
2023-04-22T15:51:00.144Z,50.35
2023-04-22T15:54:04.178Z,50.85
2023-04-22T15:57:07.958Z,49.81
2023-04-22T16:00:14.210Z,48.27
2023-04-22T16:03:18.398Z,46.83
2023-04-22T16:06:24.357Z,47.51
2023-04-22T16:09:28.037Z,47.71
2023-04-22T16:12:33.521Z,48.40
2023-04-22T16:15:38.468Z,49.17
2023-04-22T16:18:44.269Z,49.05
2023-04-22T16:21:49.795Z,49.73
2023-04-22T16:24:53.573Z,49.44
2023-04-22T16:27:57.388Z,51.01
2023-04-22T16:31:01.582Z,51.86
2023-04-22T16:34:05.874Z,52.31
2023-04-22T16:37:11.123Z,52.00
2023-04-22T16:40:14.898Z,52.05
2023-04-22T16:43:18.663Z,51.95
2023-04-22T16:46:22.452Z,53.27
2023-04-22T16:49:26.363Z,53.27
2023-04-22T16:52:31.620Z,53.71
2023-04-22T16:55:37.007Z,53.72
2023-04-22T16:58:40.938Z,55.96
2023-04-22T17:01:45.077Z,56.81
2023-04-22T17:04:48.940Z,57.27
2023-04-22T17:07:54.081Z,57.51
2023-04-22T17:10:58.100Z,57.32
2023-04-22T17:14:01.823Z,58.37
2023-04-22T17:17:05.506Z,58.33
2023-04-22T17:20:10.071Z,58.33
2023-04-22T17:23:15.294Z,59.04
2023-04-22T17:26:19.000Z,59.15
2023-04-22T17:29:23.490Z,59.92
2023-04-22T17:32:27.460Z,60.07
2023-04-22T17:35:31.291Z,60.33
2023-04-22T17:38:36.553Z,60.52
2023-04-22T17:41:40.468Z,60.48
2023-04-22T17:44:44.191Z,60.65
2023-04-22T17:47:49.082Z,61.04
2023-04-22T17:50:52.983Z,61.85
2023-04-22T17:53:58.518Z,61.56
2023-04-22T17:57:02.464Z,61.08
2023-04-22T18:00:08.642Z,60.90
2023-04-22T18:03:12.740Z,63.84
2023-04-22T18:06:16.741Z,64.86
2023-04-22T18:09:22.003Z,66.61
2023-04-22T18:12:30.422Z,66.05
2023-04-22T18:15:34.546Z,65.99
2023-04-22T18:18:39.003Z,65.56
2023-04-22T18:21:56.762Z,66.27
2023-04-22T18:25:05.004Z,69.03
2023-04-22T18:28:08.820Z,69.01
2023-04-22T18:31:12.554Z,67.52
2023-04-22T18:34:16.836Z,67.98
2023-04-22T18:37:21.368Z,68.22
2023-04-22T18:40:26.611Z,70.31
2023-04-22T18:43:30.353Z,70.28
2023-04-22T18:46:34.100Z,70.45
2023-04-22T18:49:37.927Z,71.13
2023-04-22T18:52:41.791Z,70.53
2023-04-22T18:55:47.477Z,69.75
2023-04-22T18:58:51.687Z,70.44
2023-04-22T19:01:55.575Z,70.14
2023-04-22T19:04:59.515Z,70.92
2023-04-22T19:08:03.151Z,71.47
2023-04-22T19:11:08.469Z,72.05
2023-04-22T19:14:13.930Z,70.78
2023-04-22T19:17:17.814Z,71.66
2023-04-22T19:20:21.660Z,71.63
2023-04-22T19:23:25.692Z,71.54
2023-04-22T19:26:31.379Z,71.81
2023-04-22T19:29:35.163Z,72.25
2023-04-22T19:32:38.995Z,71.81
2023-04-22T19:35:42.740Z,72.76
2023-04-22T19:38:46.418Z,72.07
2023-04-22T19:41:51.697Z,72.50
2023-04-22T19:44:56.231Z,71.32
2023-04-22T19:48:00.509Z,71.42
2023-04-22T19:51:05.562Z,70.12
2023-04-22T19:54:12.128Z,69.45
2023-04-22T19:57:17.476Z,69.72
2023-04-22T20:00:22.152Z,70.45
2023-04-22T20:03:26.642Z,70.79
2023-04-22T20:06:31.882Z,71.67
2023-04-22T20:09:37.127Z,72.74
2023-04-22T20:12:42.483Z,71.80
2023-04-22T20:15:46.440Z,72.72
2023-04-22T20:18:50.763Z,72.23
2023-04-22T20:21:57.015Z,71.59
2023-04-22T20:25:04.021Z,73.08
2023-04-22T20:28:10.958Z,71.73
2023-04-22T20:31:16.952Z,72.70
2023-04-22T20:34:21.429Z,71.87
2023-04-22T20:37:27.265Z,72.18
2023-04-22T20:40:31.485Z,72.43
2023-04-22T20:43:37.128Z,72.65
2023-04-22T20:46:40.904Z,71.62
2023-04-22T20:49:45.027Z,72.19
2023-04-22T20:52:49.312Z,71.53
2023-04-22T20:55:53.129Z,71.70
2023-04-22T20:58:58.406Z,71.65
2023-04-22T21:02:04.489Z,72.11
2023-04-22T21:05:11.431Z,71.30
2023-04-22T21:08:23.402Z,71.17
2023-04-22T21:11:27.933Z,71.42
2023-04-22T21:14:33.644Z,71.44
2023-04-22T21:17:44.657Z,71.01
2023-04-22T21:20:52.081Z,71.45
2023-04-22T21:23:57.061Z,72.17
2023-04-22T21:27:01.617Z,72.31
2023-04-22T21:30:08.399Z,72.29
2023-04-22T21:33:12.390Z,72.73
2023-04-22T21:36:16.552Z,72.64
2023-04-22T21:39:20.223Z,74.07
2023-04-22T21:42:24.088Z,74.15
2023-04-22T21:45:29.208Z,73.73
2023-04-22T21:48:33.000Z,75.26
2023-04-22T21:51:36.971Z,75.22
2023-04-22T21:54:41.191Z,76.67
2023-04-22T21:57:45.210Z,77.07
2023-04-22T22:00:50.526Z,77.22
2023-04-22T22:03:54.764Z,77.40
2023-04-22T22:06:58.861Z,75.64
2023-04-22T22:10:02.601Z,76.03
2023-04-22T22:13:06.321Z,75.19
2023-04-22T22:16:11.734Z,75.81
2023-04-22T22:19:15.616Z,76.55
2023-04-22T22:22:19.280Z,76.21
2023-04-22T22:25:22.982Z,77.08
2023-04-22T22:28:26.734Z,77.48
2023-04-22T22:31:31.805Z,77.40
2023-04-22T22:34:35.760Z,78.11
2023-04-22T22:37:39.462Z,76.88
2023-04-22T22:40:43.153Z,77.29
2023-04-22T22:43:46.880Z,76.82
2023-04-22T22:46:52.024Z,76.47
2023-04-22T22:49:55.729Z,74.95
2023-04-22T22:52:59.733Z,75.15
2023-04-22T22:56:03.729Z,76.40
2023-04-22T22:59:07.330Z,75.07
2023-04-22T23:02:14.433Z,74.44
2023-04-22T23:05:18.539Z,76.82
2023-04-22T23:08:22.286Z,75.37
2023-04-22T23:11:26.191Z,75.54
2023-04-22T23:14:30.350Z,75.68
2023-04-22T23:17:35.451Z,75.70
2023-04-22T23:20:39.738Z,78.32
2023-04-22T23:23:43.732Z,78.05
2023-04-22T23:26:47.974Z,77.33
2023-04-22T23:29:52.231Z,76.77
2023-04-22T23:32:59.002Z,76.88
2023-04-22T23:36:06.272Z,76.89
2023-04-22T23:39:10.004Z,76.87
2023-04-22T23:42:13.759Z,77.60
2023-04-22T23:45:17.645Z,77.12
2023-04-22T23:48:22.789Z,77.79
2023-04-22T23:51:27.795Z,78.39
2023-04-22T23:54:31.949Z,79.75
2023-04-22T23:57:36.142Z,79.87
